GIA226 WIII-WAHQ
Flight info
| Callsign | GIA226 |
|---|---|
| Flight time | 0h 56m |
| Altitude | 31000 |
| Route | CA T3 ANY W17N PURWO |
| Aircraft | B738/M-SDE2E3FGHIRWXY/LB1 |
Departure
| Time | 2026-05-08 22:32 |
|---|---|
| Airport | Soekarno-Hatta International Airport (WIII) |
Arrival
| Time | 2026-05-08 23:28 |
|---|---|
| Airport | Adisoemarmo International Airport (WAHQ) |
| Time | Latitude | Longitude | Altitude | Speed | Heading |
|---|---|---|---|---|---|
| 2026-05-08 22:06 | -6.11887 | 106.66092 | 37 ft | 0 kts | 168° |
| 2026-05-08 22:21 | -6.11885 | 106.66092 | 36 ft | 1 kts | 167° |
| 2026-05-08 22:22 | -6.11869 | 106.66088 | 37 ft | 3 kts | 158° |
| 2026-05-08 22:22 | -6.11850 | 106.66079 | 33 ft | 3 kts | 153° |
| 2026-05-08 22:22 | -6.11834 | 106.66071 | 36 ft | 2 kts | 159° |
| 2026-05-08 22:22 | -6.11818 | 106.66063 | 35 ft | 3 kts | 129° |
| 2026-05-08 22:23 | -6.11810 | 106.66048 | 37 ft | 3 kts | 88° |
| 2026-05-08 22:23 | -6.11812 | 106.66033 | 35 ft | 1 kts | 75° |
| 2026-05-08 22:23 | -6.11812 | 106.66031 | 35 ft | 1 kts | 75° |
| 2026-05-08 22:25 | -6.11803 | 106.66060 | 37 ft | 9 kts | 71° |
| 2026-05-08 22:25 | -6.11776 | 106.66130 | 37 ft | 12 kts | 68° |
| 2026-05-08 22:25 | -6.11747 | 106.66205 | 37 ft | 11 kts | 68° |
| 2026-05-08 22:26 | -6.11718 | 106.66278 | 37 ft | 11 kts | 68° |
| 2026-05-08 22:26 | -6.11691 | 106.66348 | 37 ft | 11 kts | 68° |
| 2026-05-08 22:26 | -6.11645 | 106.66404 | 37 ft | 10 kts | 16° |
| 2026-05-08 22:26 | -6.11575 | 106.66386 | 37 ft | 10 kts | 341° |
| 2026-05-08 22:27 | -6.11509 | 106.66363 | 37 ft | 10 kts | 341° |
| 2026-05-08 22:27 | -6.11446 | 106.66335 | 37 ft | 10 kts | 334° |
| 2026-05-08 22:27 | -6.11384 | 106.66309 | 37 ft | 9 kts | 342° |
| 2026-05-08 22:27 | -6.11326 | 106.66326 | 38 ft | 9 kts | 49° |
| 2026-05-08 22:28 | -6.11295 | 106.66390 | 38 ft | 12 kts | 68° |
| 2026-05-08 22:28 | -6.11260 | 106.66481 | 38 ft | 15 kts | 68° |
| 2026-05-08 22:28 | -6.11221 | 106.66579 | 35 ft | 15 kts | 68° |
| 2026-05-08 22:28 | -6.11183 | 106.66673 | 37 ft | 14 kts | 68° |
| 2026-05-08 22:29 | -6.11148 | 106.66761 | 36 ft | 13 kts | 68° |
| 2026-05-08 22:29 | -6.11137 | 106.66789 | 38 ft | 0 kts | 66° |
| 2026-05-08 22:29 | -6.11136 | 106.66790 | 38 ft | 1 kts | 67° |
| 2026-05-08 22:30 | -6.11121 | 106.66828 | 36 ft | 10 kts | 68° |
| 2026-05-08 22:30 | -6.11094 | 106.66898 | 37 ft | 11 kts | 68° |
| 2026-05-08 22:30 | -6.11056 | 106.66963 | 36 ft | 11 kts | 37° |
| 2026-05-08 22:30 | -6.10987 | 106.66969 | 38 ft | 10 kts | 333° |
| 2026-05-08 22:31 | -6.10938 | 106.66914 | 38 ft | 13 kts | 295° |
| 2026-05-08 22:31 | -6.10953 | 106.66766 | 37 ft | 31 kts | 250° |
| 2026-05-08 22:31 | -6.11086 | 106.66426 | 37 ft | 84 kts | 248° |
| 2026-05-08 22:31 | -6.11385 | 106.65679 | 36 ft | 144 kts | 248° |
| 2026-05-08 22:32 | -6.11805 | 106.64622 | 254 ft | 173 kts | 248° |
| 2026-05-08 22:32 | -6.12211 | 106.63550 | 1045 ft | 163 kts | 249° |
| 2026-05-08 22:32 | -6.12476 | 106.62406 | 1563 ft | 173 kts | 275° |
| 2026-05-08 22:32 | -6.12098 | 106.61212 | 2009 ft | 192 kts | 291° |
| 2026-05-08 22:33 | -6.11603 | 106.59880 | 2250 ft | 219 kts | 290° |
| 2026-05-08 22:33 | -6.11068 | 106.58369 | 2433 ft | 240 kts | 289° |
| 2026-05-08 22:33 | -6.10520 | 106.56717 | 2652 ft | 260 kts | 288° |
| 2026-05-08 22:33 | -6.09957 | 106.54932 | 3064 ft | 273 kts | 287° |
| 2026-05-08 22:34 | -6.09393 | 106.53106 | 3847 ft | 273 kts | 287° |
| 2026-05-08 22:34 | -6.08624 | 106.51360 | 4598 ft | 276 kts | 308° |
| 2026-05-08 22:34 | -6.07124 | 106.50170 | 5325 ft | 277 kts | 338° |
| 2026-05-08 22:34 | -6.05263 | 106.49852 | 6057 ft | 278 kts | 6° |
| 2026-05-08 22:35 | -6.03420 | 106.50408 | 6753 ft | 280 kts | 33° |
| 2026-05-08 22:35 | -6.02476 | 106.51281 | 7214 ft | 280 kts | 56° |
| 2026-05-08 22:35 | -6.01805 | 106.53103 | 7970 ft | 281 kts | 85° |
| 2026-05-08 22:35 | -6.02136 | 106.55711 | 8993 ft | 286 kts | 107° |
| 2026-05-08 22:36 | -6.02541 | 106.56978 | 9499 ft | 289 kts | 108° |
| 2026-05-08 22:36 | -6.03203 | 106.58893 | 10228 ft | 292 kts | 109° |
| 2026-05-08 22:36 | -6.04113 | 106.61462 | 11243 ft | 296 kts | 109° |
| 2026-05-08 22:36 | -6.04580 | 106.62787 | 11767 ft | 298 kts | 109° |
| 2026-05-08 22:37 | -6.05264 | 106.64739 | 12527 ft | 301 kts | 109° |
| 2026-05-08 22:37 | -6.05959 | 106.66740 | 13311 ft | 305 kts | 109° |
| 2026-05-08 22:37 | -6.06657 | 106.68765 | 14045 ft | 308 kts | 109° |
| 2026-05-08 22:37 | -6.07360 | 106.70813 | 14758 ft | 312 kts | 109° |
| 2026-05-08 22:38 | -6.08068 | 106.72885 | 15483 ft | 315 kts | 109° |
| 2026-05-08 22:38 | -6.08783 | 106.74982 | 16194 ft | 319 kts | 109° |
| 2026-05-08 22:38 | -6.09506 | 106.77106 | 16906 ft | 323 kts | 109° |
| 2026-05-08 22:38 | -6.10236 | 106.79254 | 17603 ft | 327 kts | 109° |
| 2026-05-08 22:39 | -6.10975 | 106.81432 | 18267 ft | 331 kts | 110° |
| 2026-05-08 22:39 | -6.11724 | 106.83637 | 18863 ft | 334 kts | 110° |
| 2026-05-08 22:39 | -6.12467 | 106.85830 | 19458 ft | 338 kts | 109° |
| 2026-05-08 22:39 | -6.13229 | 106.88077 | 20079 ft | 341 kts | 109° |
| 2026-05-08 22:40 | -6.13999 | 106.90349 | 20684 ft | 345 kts | 109° |
| 2026-05-08 22:40 | -6.14777 | 106.92644 | 21286 ft | 348 kts | 109° |
| 2026-05-08 22:40 | -6.15562 | 106.94963 | 21885 ft | 352 kts | 109° |
| 2026-05-08 22:40 | -6.16354 | 106.97299 | 22469 ft | 355 kts | 109° |
| 2026-05-08 22:41 | -6.17144 | 106.99635 | 23057 ft | 359 kts | 109° |
| 2026-05-08 22:41 | -6.17954 | 107.02026 | 23596 ft | 363 kts | 109° |
| 2026-05-08 22:41 | -6.18773 | 107.04446 | 24076 ft | 366 kts | 109° |
| 2026-05-08 22:41 | -6.19596 | 107.06877 | 24558 ft | 369 kts | 109° |
| 2026-05-08 22:42 | -6.20426 | 107.09330 | 25053 ft | 372 kts | 109° |
| 2026-05-08 22:42 | -6.21261 | 107.11798 | 25537 ft | 375 kts | 109° |
| 2026-05-08 22:42 | -6.22104 | 107.14291 | 26001 ft | 378 kts | 109° |
| 2026-05-08 22:42 | -6.22956 | 107.16808 | 26477 ft | 381 kts | 109° |
| 2026-05-08 22:43 | -6.23807 | 107.19324 | 27052 ft | 380 kts | 109° |
| 2026-05-08 22:43 | -6.24655 | 107.21834 | 27678 ft | 378 kts | 109° |
| 2026-05-08 22:43 | -6.25500 | 107.24332 | 28275 ft | 377 kts | 109° |
| 2026-05-08 22:43 | -6.26332 | 107.26796 | 28822 ft | 377 kts | 109° |
| 2026-05-08 22:44 | -6.27175 | 107.29290 | 29406 ft | 376 kts | 109° |
| 2026-05-08 22:44 | -6.28016 | 107.31777 | 29953 ft | 376 kts | 109° |
| 2026-05-08 22:44 | -6.28858 | 107.34270 | 30409 ft | 376 kts | 108° |
| 2026-05-08 22:44 | -6.29697 | 107.36756 | 30848 ft | 376 kts | 108° |
| 2026-05-08 22:45 | -6.30537 | 107.39243 | 30838 ft | 375 kts | 108° |
| 2026-05-08 22:45 | -6.32206 | 107.44184 | 30878 ft | 374 kts | 108° |
| 2026-05-08 22:46 | -6.33881 | 107.49149 | 30886 ft | 376 kts | 108° |
| 2026-05-08 22:46 | -6.35563 | 107.54135 | 30885 ft | 377 kts | 108° |
| 2026-05-08 22:47 | -6.37250 | 107.59136 | 30883 ft | 377 kts | 108° |
| 2026-05-08 22:47 | -6.38938 | 107.64143 | 30890 ft | 377 kts | 108° |
| 2026-05-08 22:48 | -6.40608 | 107.69096 | 30894 ft | 375 kts | 108° |
| 2026-05-08 22:48 | -6.42281 | 107.74063 | 30895 ft | 374 kts | 108° |
| 2026-05-08 22:49 | -6.43949 | 107.79013 | 30892 ft | 373 kts | 108° |
| 2026-05-08 22:49 | -6.46430 | 107.86383 | 30893 ft | 372 kts | 108° |
| 2026-05-08 22:50 | -6.48089 | 107.91314 | 30891 ft | 372 kts | 108° |
| 2026-05-08 22:50 | -6.49746 | 107.96239 | 30892 ft | 372 kts | 108° |
| 2026-05-08 22:51 | -6.51390 | 108.01128 | 30913 ft | 373 kts | 108° |
| 2026-05-08 22:51 | -6.53046 | 108.06055 | 30899 ft | 374 kts | 108° |
| 2026-05-08 22:52 | -6.54719 | 108.11033 | 30900 ft | 375 kts | 108° |
| 2026-05-08 22:52 | -6.56381 | 108.15982 | 30897 ft | 376 kts | 108° |
| 2026-05-08 22:53 | -6.58057 | 108.20972 | 30895 ft | 377 kts | 108° |
| 2026-05-08 22:53 | -6.59732 | 108.25963 | 30896 ft | 377 kts | 108° |
| 2026-05-08 22:54 | -6.61409 | 108.30960 | 30892 ft | 376 kts | 108° |
| 2026-05-08 22:54 | -6.63083 | 108.35951 | 30892 ft | 376 kts | 108° |
| 2026-05-08 22:55 | -6.64752 | 108.40929 | 30911 ft | 375 kts | 108° |
| 2026-05-08 22:55 | -6.66407 | 108.45866 | 30909 ft | 374 kts | 108° |
| 2026-05-08 22:56 | -6.68070 | 108.50831 | 30903 ft | 374 kts | 108° |
| 2026-05-08 22:56 | -6.69717 | 108.55794 | 30904 ft | 373 kts | 105° |
| 2026-05-08 22:57 | -6.70673 | 108.60916 | 30901 ft | 372 kts | 98° |
| 2026-05-08 22:57 | -6.71407 | 108.66038 | 30902 ft | 372 kts | 98° |
| 2026-05-08 22:58 | -6.72162 | 108.71199 | 30895 ft | 373 kts | 98° |
| 2026-05-08 22:58 | -6.72940 | 108.76358 | 30897 ft | 373 kts | 98° |
| 2026-05-08 22:59 | -6.73730 | 108.81526 | 30896 ft | 374 kts | 98° |
| 2026-05-08 22:59 | -6.74518 | 108.86664 | 30889 ft | 374 kts | 98° |
| 2026-05-08 23:00 | -6.75313 | 108.91845 | 30896 ft | 374 kts | 98° |
| 2026-05-08 23:00 | -6.76112 | 108.97053 | 30916 ft | 382 kts | 98° |
| 2026-05-08 23:01 | -6.76526 | 108.99758 | 30919 ft | 396 kts | 98° |
| 2026-05-08 23:01 | -6.76943 | 109.02479 | 30910 ft | 409 kts | 98° |
| 2026-05-08 23:01 | -6.77377 | 109.05312 | 30918 ft | 421 kts | 98° |
| 2026-05-08 23:01 | -6.77828 | 109.08264 | 30913 ft | 432 kts | 98° |
| 2026-05-08 23:02 | -6.78764 | 109.14380 | 30902 ft | 452 kts | 98° |
| 2026-05-08 23:02 | -6.79738 | 109.20749 | 30899 ft | 468 kts | 98° |
| 2026-05-08 23:03 | -6.80741 | 109.27315 | 30890 ft | 480 kts | 98° |
| 2026-05-08 23:03 | -6.81749 | 109.33927 | 30873 ft | 480 kts | 98° |
| 2026-05-08 23:04 | -6.82759 | 109.40554 | 30875 ft | 478 kts | 98° |
| 2026-05-08 23:04 | -6.83765 | 109.47158 | 30875 ft | 476 kts | 98° |
| 2026-05-08 23:05 | -6.84766 | 109.53739 | 30875 ft | 475 kts | 98° |
| 2026-05-08 23:05 | -6.85701 | 109.59888 | 30882 ft | 474 kts | 98° |
| 2026-05-08 23:06 | -6.86695 | 109.66438 | 30884 ft | 473 kts | 98° |
| 2026-05-08 23:06 | -6.87688 | 109.72980 | 30899 ft | 473 kts | 98° |
| 2026-05-08 23:07 | -6.88681 | 109.79531 | 30898 ft | 473 kts | 98° |
| 2026-05-08 23:07 | -6.89673 | 109.86081 | 30903 ft | 474 kts | 98° |
| 2026-05-08 23:08 | -6.90670 | 109.92672 | 30161 ft | 481 kts | 98° |
| 2026-05-08 23:08 | -6.91172 | 109.95992 | 29287 ft | 479 kts | 98° |
| 2026-05-08 23:08 | -6.91672 | 109.99308 | 28314 ft | 479 kts | 98° |
| 2026-05-08 23:09 | -6.92162 | 110.02554 | 27344 ft | 480 kts | 99° |
| 2026-05-08 23:09 | -6.92664 | 110.05880 | 26348 ft | 481 kts | 99° |
| 2026-05-08 23:09 | -6.93157 | 110.09146 | 25616 ft | 476 kts | 99° |
| 2026-05-08 23:09 | -6.93651 | 110.12422 | 24868 ft | 471 kts | 99° |
| 2026-05-08 23:10 | -6.94140 | 110.15671 | 24125 ft | 468 kts | 99° |
| 2026-05-08 23:10 | -6.94626 | 110.18896 | 23390 ft | 464 kts | 99° |
| 2026-05-08 23:10 | -6.95108 | 110.22096 | 22541 ft | 460 kts | 99° |
| 2026-05-08 23:10 | -6.95585 | 110.25264 | 21798 ft | 454 kts | 99° |
| 2026-05-08 23:11 | -6.96055 | 110.28391 | 21072 ft | 448 kts | 99° |
| 2026-05-08 23:11 | -6.96519 | 110.31473 | 20372 ft | 443 kts | 99° |
| 2026-05-08 23:11 | -6.96978 | 110.34521 | 19664 ft | 438 kts | 100° |
| 2026-05-08 23:11 | -6.97663 | 110.37483 | 18988 ft | 432 kts | 109° |
| 2026-05-08 23:12 | -6.98783 | 110.40268 | 18314 ft | 426 kts | 118° |
| 2026-05-08 23:12 | -7.00281 | 110.42822 | 17577 ft | 421 kts | 122° |
| 2026-05-08 23:12 | -7.01811 | 110.45310 | 16870 ft | 416 kts | 122° |
| 2026-05-08 23:12 | -7.03318 | 110.47780 | 16176 ft | 411 kts | 122° |
| 2026-05-08 23:13 | -7.04798 | 110.50229 | 15513 ft | 407 kts | 122° |
| 2026-05-08 23:13 | -7.06236 | 110.52624 | 14856 ft | 403 kts | 121° |
| 2026-05-08 23:13 | -7.07678 | 110.55036 | 14186 ft | 401 kts | 121° |
| 2026-05-08 23:13 | -7.09106 | 110.57430 | 13505 ft | 392 kts | 121° |
| 2026-05-08 23:14 | -7.10486 | 110.59744 | 12768 ft | 379 kts | 121° |
| 2026-05-08 23:14 | -7.11821 | 110.61983 | 12151 ft | 371 kts | 121° |
| 2026-05-08 23:14 | -7.13151 | 110.64214 | 11561 ft | 373 kts | 121° |
| 2026-05-08 23:14 | -7.14489 | 110.66457 | 11029 ft | 372 kts | 121° |
| 2026-05-08 23:15 | -7.15808 | 110.68668 | 10849 ft | 367 kts | 121° |
| 2026-05-08 23:15 | -7.17099 | 110.70833 | 10754 ft | 353 kts | 121° |
| 2026-05-08 23:15 | -7.18398 | 110.72872 | 10599 ft | 340 kts | 129° |
| 2026-05-08 23:15 | -7.20189 | 110.74332 | 10467 ft | 327 kts | 153° |
| 2026-05-08 23:16 | -7.22290 | 110.75074 | 10337 ft | 316 kts | 170° |
| 2026-05-08 23:16 | -7.24450 | 110.75197 | 10216 ft | 306 kts | 180° |
| 2026-05-08 23:16 | -7.26547 | 110.75156 | 10091 ft | 297 kts | 181° |
| 2026-05-08 23:16 | -7.28590 | 110.75097 | 9905 ft | 291 kts | 181° |
| 2026-05-08 23:17 | -7.30587 | 110.75042 | 9604 ft | 290 kts | 181° |
| 2026-05-08 23:17 | -7.32595 | 110.74993 | 9309 ft | 287 kts | 181° |
| 2026-05-08 23:17 | -7.34587 | 110.74951 | 9025 ft | 285 kts | 180° |
| 2026-05-08 23:17 | -7.36568 | 110.74912 | 8716 ft | 284 kts | 180° |
| 2026-05-08 23:18 | -7.38538 | 110.74875 | 8418 ft | 283 kts | 180° |
| 2026-05-08 23:18 | -7.40503 | 110.74840 | 8112 ft | 282 kts | 180° |
| 2026-05-08 23:18 | -7.42447 | 110.74806 | 7799 ft | 275 kts | 180° |
| 2026-05-08 23:18 | -7.44345 | 110.74773 | 7506 ft | 271 kts | 180° |
| 2026-05-08 23:19 | -7.46231 | 110.74741 | 7207 ft | 271 kts | 180° |
| 2026-05-08 23:19 | -7.48104 | 110.74856 | 6884 ft | 271 kts | 163° |
| 2026-05-08 23:19 | -7.49714 | 110.75801 | 6620 ft | 269 kts | 134° |
| 2026-05-08 23:19 | -7.50665 | 110.77397 | 6340 ft | 268 kts | 106° |
| 2026-05-08 23:20 | -7.50848 | 110.79248 | 6036 ft | 267 kts | 85° |
| 2026-05-08 23:20 | -7.50836 | 110.81122 | 5689 ft | 268 kts | 99° |
| 2026-05-08 23:20 | -7.51205 | 110.82903 | 5498 ft | 255 kts | 102° |
| 2026-05-08 23:20 | -7.51520 | 110.84586 | 5375 ft | 235 kts | 100° |
| 2026-05-08 23:21 | -7.51780 | 110.86148 | 5241 ft | 217 kts | 99° |
| 2026-05-08 23:21 | -7.52010 | 110.87602 | 5099 ft | 205 kts | 99° |
| 2026-05-08 23:21 | -7.52237 | 110.89057 | 4591 ft | 211 kts | 99° |
| 2026-05-08 23:21 | -7.52460 | 110.90506 | 4330 ft | 203 kts | 99° |
| 2026-05-08 23:22 | -7.52671 | 110.91886 | 4182 ft | 195 kts | 99° |
| 2026-05-08 23:22 | -7.52866 | 110.93196 | 4094 ft | 183 kts | 96° |
| 2026-05-08 23:22 | -7.52715 | 110.94427 | 3988 ft | 178 kts | 66° |
| 2026-05-08 23:22 | -7.51982 | 110.95416 | 3929 ft | 178 kts | 39° |
| 2026-05-08 23:23 | -7.50898 | 110.95963 | 3848 ft | 180 kts | 13° |
| 2026-05-08 23:23 | -7.49656 | 110.95964 | 3777 ft | 181 kts | 345° |
| 2026-05-08 23:23 | -7.48551 | 110.95377 | 3700 ft | 182 kts | 316° |
| 2026-05-08 23:23 | -7.47912 | 110.94292 | 3522 ft | 185 kts | 276° |
| 2026-05-08 23:24 | -7.47948 | 110.93448 | 3443 ft | 180 kts | 262° |
| 2026-05-08 23:24 | -7.48088 | 110.92200 | 3244 ft | 177 kts | 264° |
| 2026-05-08 23:24 | -7.48236 | 110.90987 | 3045 ft | 173 kts | 259° |
| 2026-05-08 23:24 | -7.48478 | 110.89805 | 2889 ft | 169 kts | 257° |
| 2026-05-08 23:25 | -7.48733 | 110.88662 | 2744 ft | 165 kts | 257° |
| 2026-05-08 23:25 | -7.48979 | 110.87555 | 2539 ft | 159 kts | 257° |
| 2026-05-08 23:25 | -7.49217 | 110.86485 | 2328 ft | 155 kts | 257° |
| 2026-05-08 23:25 | -7.49451 | 110.85431 | 2128 ft | 154 kts | 257° |
| 2026-05-08 23:26 | -7.49683 | 110.84388 | 1939 ft | 154 kts | 257° |
| 2026-05-08 23:26 | -7.49917 | 110.83331 | 1732 ft | 153 kts | 257° |
| 2026-05-08 23:26 | -7.50149 | 110.82288 | 1520 ft | 152 kts | 257° |
| 2026-05-08 23:26 | -7.50379 | 110.81254 | 1323 ft | 151 kts | 257° |
| 2026-05-08 23:27 | -7.50609 | 110.80228 | 1096 ft | 149 kts | 257° |
| 2026-05-08 23:27 | -7.50834 | 110.79209 | 923 ft | 148 kts | 257° |
| 2026-05-08 23:27 | -7.51057 | 110.78195 | 721 ft | 149 kts | 257° |
| 2026-05-08 23:27 | -7.51282 | 110.77187 | 569 ft | 149 kts | 257° |
| 2026-05-08 23:28 | -7.51503 | 110.76184 | 428 ft | 140 kts | 258° |
| 2026-05-08 23:28 | -7.51692 | 110.75331 | 428 ft | 104 kts | 257° |
| 2026-05-08 23:28 | -7.51779 | 110.74936 | 423 ft | 13 kts | 262° |
| 2026-05-08 23:28 | -7.51787 | 110.74858 | 415 ft | 6 kts | 232° |
| 2026-05-08 23:29 | -7.51799 | 110.74854 | 421 ft | 0 kts | 161° |
| 2026-05-08 23:29 | -7.51803 | 110.74863 | 423 ft | 5 kts | 109° |
| 2026-05-08 23:29 | -7.51777 | 110.74936 | 423 ft | 20 kts | 69° |
| 2026-05-08 23:29 | -7.51752 | 110.75049 | 423 ft | 13 kts | 79° |
| 2026-05-08 23:30 | -7.51733 | 110.75138 | 426 ft | 12 kts | 67° |
| 2026-05-08 23:30 | -7.51676 | 110.75167 | 424 ft | 7 kts | 354° |
| 2026-05-08 23:30 | -7.51652 | 110.75163 | 423 ft | 7 kts | 351° |
| 2026-05-08 23:30 | -7.51559 | 110.75143 | 426 ft | 14 kts | 347° |
| 2026-05-08 23:31 | -7.51493 | 110.75118 | 423 ft | 9 kts | 315° |
| 2026-05-08 23:31 | -7.51484 | 110.75060 | 417 ft | 9 kts | 259° |
| 2026-05-08 23:31 | -7.51497 | 110.75003 | 421 ft | 8 kts | 257° |
| 2026-05-08 23:31 | -7.51500 | 110.74966 | 419 ft | 5 kts | 289° |
| 2026-05-08 23:32 | -7.51475 | 110.74948 | 423 ft | 5 kts | 341° |
| 2026-05-08 23:32 | -7.51448 | 110.74941 | 426 ft | 3 kts | 347° |
| 2026-05-08 23:32 | -7.51436 | 110.74938 | 426 ft | 0 kts | 347° |